createdAt,value
2022-12-22T00:02:21.412Z,21.17
2022-12-22T00:05:08.431Z,8.80
2022-12-22T00:07:54.615Z,9.57
2022-12-22T00:10:41.885Z,7.27
2022-12-22T00:13:29.646Z,8.33
2022-12-22T00:16:16.153Z,8.13
2022-12-22T00:19:02.553Z,8.33
2022-12-22T00:21:49.894Z,9.30
2022-12-22T00:24:35.858Z,14.53
2022-12-22T00:27:23.077Z,7.00
2022-12-22T00:30:09.372Z,9.67
2022-12-22T00:32:57.283Z,7.33
2022-12-22T00:35:44.622Z,7.90
2022-12-22T00:38:34.131Z,6.90
2022-12-22T00:41:20.550Z,6.27
2022-12-22T00:44:24.334Z,8.50
2022-12-22T00:47:10.549Z,10.00
2022-12-22T00:49:57.606Z,7.60
2022-12-22T00:52:43.398Z,7.90
2022-12-22T00:55:33.884Z,9.63
2022-12-22T00:58:21.087Z,7.30
2022-12-22T01:01:08.322Z,8.23
2022-12-22T01:03:54.224Z,8.03
2022-12-22T01:06:50.609Z,8.13
2022-12-22T01:09:36.766Z,7.87
2022-12-22T01:12:28.991Z,8.37
2022-12-22T01:15:14.640Z,7.17
2022-12-22T01:18:01.923Z,6.83
2022-12-22T01:20:47.550Z,7.10
2022-12-22T01:23:33.404Z,5.67
2022-12-22T01:26:19.542Z,6.60
2022-12-22T01:29:05.043Z,5.23
2022-12-22T01:31:51.497Z,7.00
2022-12-22T01:34:38.559Z,7.37
2022-12-22T01:37:24.213Z,4.80
2022-12-22T01:40:09.875Z,4.23
2022-12-22T01:42:55.502Z,4.70
2022-12-22T01:45:44.220Z,4.90
2022-12-22T01:48:31.418Z,4.90
2022-12-22T01:51:21.360Z,7.00
2022-12-22T01:54:07.532Z,4.20
2022-12-22T01:56:53.189Z,4.80
2022-12-22T01:59:38.993Z,4.60
2022-12-22T02:02:26.625Z,4.33
2022-12-22T02:05:15.389Z,6.20
2022-12-22T02:08:28.268Z,5.63
2022-12-22T02:11:26.691Z,4.97
2022-12-22T02:14:29.630Z,6.60
2022-12-22T02:17:25.779Z,4.90
2022-12-22T02:20:39.413Z,5.33
2022-12-22T02:23:36.491Z,5.30
2022-12-22T02:26:41.877Z,5.13
2022-12-22T02:29:29.427Z,6.63
2022-12-22T02:32:15.236Z,6.27
2022-12-22T02:35:00.972Z,6.00
2022-12-22T02:37:54.939Z,7.10
2022-12-22T02:40:47.835Z,6.20
2022-12-22T02:43:46.496Z,7.40
2022-12-22T02:46:39.944Z,8.10
2022-12-22T02:49:32.716Z,8.33
2022-12-22T02:52:27.193Z,7.60
2022-12-22T02:55:13.524Z,8.40
2022-12-22T02:57:59.691Z,9.83
2022-12-22T03:00:47.272Z,8.67
2022-12-22T03:03:33.831Z,9.67
2022-12-22T03:06:20.313Z,8.60
2022-12-22T03:09:05.784Z,9.60
2022-12-22T03:11:51.761Z,8.03
2022-12-22T03:14:37.514Z,8.33
2022-12-22T03:17:24.760Z,8.40
2022-12-22T03:20:10.536Z,7.67
2022-12-22T03:22:56.381Z,10.30
2022-12-22T03:25:42.069Z,10.17
2022-12-22T03:28:11.450Z,12.00
2022-12-22T03:30:40.341Z,12.07
2022-12-22T03:33:09.842Z,11.73
2022-12-22T03:35:38.040Z,12.10
2022-12-22T03:38:06.188Z,10.77
2022-12-22T03:40:34.443Z,11.43
2022-12-22T03:43:20.152Z,11.77
2022-12-22T03:46:05.979Z,10.43
2022-12-22T03:48:36.495Z,11.80
2022-12-22T03:51:04.668Z,10.70
2022-12-22T03:53:32.917Z,11.60
2022-12-22T03:56:05.844Z,12.80
2022-12-22T03:58:36.215Z,10.50
2022-12-22T04:01:08.475Z,11.30
2022-12-22T04:03:38.253Z,11.07
2022-12-22T04:06:06.565Z,10.63
2022-12-22T04:08:34.774Z,11.93
2022-12-22T04:11:20.369Z,12.13
2022-12-22T04:13:48.518Z,11.37
2022-12-22T04:16:16.759Z,13.10
2022-12-22T04:18:46.262Z,12.67
2022-12-22T04:21:14.438Z,11.57
2022-12-22T04:23:43.039Z,12.33
2022-12-22T04:26:11.276Z,13.80
2022-12-22T04:28:39.617Z,14.00
2022-12-22T04:31:07.814Z,14.23
2022-12-22T04:33:35.993Z,14.20
2022-12-22T04:36:06.560Z,14.20
2022-12-22T04:38:34.819Z,13.53
2022-12-22T04:41:03.273Z,12.10
2022-12-22T04:43:31.536Z,13.57
2022-12-22T04:45:59.910Z,14.00
2022-12-22T04:48:29.477Z,12.87
2022-12-22T04:51:00.121Z,13.43
2022-12-22T04:53:30.837Z,14.17
2022-12-22T04:56:00.887Z,15.47
2022-12-22T04:58:29.644Z,13.03
2022-12-22T05:00:58.025Z,14.17
2022-12-22T05:03:26.281Z,14.27
2022-12-22T05:05:55.035Z,13.20
2022-12-22T05:08:23.228Z,15.47
2022-12-22T05:10:52.707Z,14.20
2022-12-22T05:13:20.850Z,14.47
2022-12-22T05:15:49.011Z,12.83
2022-12-22T05:18:17.145Z,13.33
2022-12-22T05:20:45.276Z,13.90
2022-12-22T05:23:14.314Z,13.63
2022-12-22T05:25:42.496Z,13.80
2022-12-22T05:28:11.981Z,14.23
2022-12-22T05:30:41.764Z,14.23
2022-12-22T05:33:10.000Z,15.33
2022-12-22T05:35:38.144Z,14.17
2022-12-22T05:38:06.358Z,14.30
2022-12-22T05:40:34.603Z,13.53
2022-12-22T05:43:02.833Z,14.57
2022-12-22T05:45:32.339Z,14.13
2022-12-22T05:48:00.482Z,14.23
2022-12-22T05:50:28.668Z,14.30
2022-12-22T05:53:00.432Z,13.77
2022-12-22T05:55:29.010Z,14.23
2022-12-22T05:57:57.211Z,13.80
2022-12-22T06:00:25.438Z,13.10
2022-12-22T06:02:55.019Z,14.10
2022-12-22T06:05:23.678Z,12.80
2022-12-22T06:07:52.806Z,13.20
2022-12-22T06:10:21.003Z,13.40
2022-12-22T06:12:49.235Z,13.27
2022-12-22T06:15:17.508Z,13.10
2022-12-22T06:17:45.651Z,12.40
2022-12-22T06:20:15.478Z,13.07
2022-12-22T06:22:43.655Z,14.87
2022-12-22T06:25:18.198Z,15.23
2022-12-22T06:27:47.624Z,14.10
2022-12-22T06:30:16.829Z,16.10
2022-12-22T06:32:45.380Z,14.20
2022-12-22T06:35:15.104Z,15.67
2022-12-22T06:37:43.292Z,16.37
2022-12-22T06:40:12.474Z,14.30
2022-12-22T06:43:03.969Z,15.93
2022-12-22T06:45:36.507Z,15.17
2022-12-22T06:48:05.500Z,16.03
2022-12-22T06:50:35.117Z,16.57
2022-12-22T06:53:04.139Z,14.47
2022-12-22T06:55:32.450Z,15.60
2022-12-22T06:58:00.753Z,15.80
2022-12-22T07:00:29.463Z,17.50
2022-12-22T07:02:57.960Z,14.30
2022-12-22T07:05:26.683Z,15.63
2022-12-22T07:07:57.270Z,14.53
2022-12-22T07:10:41.953Z,14.00
2022-12-22T07:13:20.381Z,15.47
2022-12-22T07:15:55.625Z,13.43
2022-12-22T07:18:27.980Z,16.20
2022-12-22T07:20:56.279Z,14.97
2022-12-22T07:23:54.101Z,14.67
2022-12-22T07:26:22.272Z,13.37
2022-12-22T07:28:50.318Z,15.80
2022-12-22T07:31:19.389Z,16.73
2022-12-22T07:33:47.787Z,16.20
2022-12-22T07:36:17.863Z,16.60
2022-12-22T07:38:48.670Z,16.37
2022-12-22T07:41:37.796Z,15.47
2022-12-22T07:44:08.327Z,15.77
2022-12-22T07:46:38.836Z,16.83
2022-12-22T07:49:25.579Z,13.70
2022-12-22T07:51:56.594Z,15.67
2022-12-22T07:54:25.549Z,15.07
2022-12-22T07:56:55.464Z,13.63
2022-12-22T07:59:23.838Z,14.90
2022-12-22T08:01:52.008Z,13.87
2022-12-22T08:04:20.284Z,14.10
2022-12-22T08:06:48.515Z,13.00
2022-12-22T08:09:18.378Z,14.73
2022-12-22T08:11:46.479Z,14.80
2022-12-22T08:14:15.998Z,13.70
2022-12-22T08:16:44.172Z,13.23
2022-12-22T08:19:12.366Z,13.43
2022-12-22T08:21:40.469Z,15.80
2022-12-22T08:24:09.001Z,16.00
2022-12-22T08:26:41.937Z,14.60
2022-12-22T08:29:14.951Z,11.50
2022-12-22T08:31:45.149Z,14.00
2022-12-22T08:34:15.996Z,14.60
2022-12-22T08:36:48.342Z,13.97
2022-12-22T08:39:18.581Z,13.17
2022-12-22T08:41:52.634Z,13.50
2022-12-22T08:44:23.820Z,13.40
2022-12-22T08:46:54.945Z,13.57
2022-12-22T08:49:23.689Z,12.30
2022-12-22T08:51:52.726Z,14.63
2022-12-22T08:54:21.320Z,12.80
2022-12-22T08:56:50.074Z,13.10
2022-12-22T08:59:18.647Z,13.03
2022-12-22T09:01:50.370Z,13.23
2022-12-22T09:04:22.619Z,13.53
2022-12-22T09:06:52.575Z,12.37
2022-12-22T09:09:22.053Z,12.60
2022-12-22T09:11:50.929Z,13.57
2022-12-22T09:14:19.215Z,12.97
2022-12-22T09:16:47.376Z,13.10
2022-12-22T09:19:15.527Z,14.20
2022-12-22T09:21:45.858Z,15.23
2022-12-22T09:24:14.794Z,13.67
2022-12-22T09:26:43.016Z,14.63
2022-12-22T09:29:11.217Z,13.03
2022-12-22T09:31:41.642Z,14.77
2022-12-22T09:34:16.816Z,13.27
2022-12-22T09:36:47.214Z,14.20
2022-12-22T09:39:15.920Z,13.23
2022-12-22T09:41:47.137Z,13.80
2022-12-22T09:44:22.279Z,13.03
2022-12-22T09:46:51.159Z,14.93
2022-12-22T09:49:20.582Z,12.30
2022-12-22T09:51:53.243Z,13.13
2022-12-22T09:54:23.572Z,12.60
2022-12-22T09:56:51.754Z,15.10
2022-12-22T09:59:22.508Z,12.70
2022-12-22T10:02:06.433Z,12.33
2022-12-22T10:04:46.389Z,11.97
2022-12-22T10:07:25.952Z,12.97
2022-12-22T10:09:54.608Z,11.47
2022-12-22T10:12:25.741Z,10.80
2022-12-22T10:14:55.735Z,11.43
2022-12-22T10:17:28.155Z,12.77
2022-12-22T10:20:22.008Z,10.77
2022-12-22T10:22:53.907Z,11.10
2022-12-22T10:25:52.306Z,12.13
2022-12-22T10:28:24.146Z,10.63
2022-12-22T10:31:11.824Z,11.87
2022-12-22T10:33:46.124Z,10.40
2022-12-22T10:36:17.679Z,10.07
2022-12-22T10:38:58.656Z,9.63
2022-12-22T10:41:30.119Z,9.20
2022-12-22T10:44:01.577Z,9.70
2022-12-22T10:46:36.506Z,10.13
2022-12-22T10:49:13.176Z,11.00
2022-12-22T10:51:43.883Z,9.03
2022-12-22T10:54:25.571Z,11.10
2022-12-22T10:57:05.242Z,10.97
2022-12-22T10:59:34.715Z,10.37
2022-12-22T11:02:26.727Z,10.43
2022-12-22T11:04:56.437Z,11.80
2022-12-22T11:07:25.407Z,9.67
2022-12-22T11:09:54.919Z,9.97
2022-12-22T11:12:33.377Z,10.90
2022-12-22T11:15:08.033Z,11.60
2022-12-22T11:17:47.034Z,11.27
2022-12-22T11:20:31.396Z,10.53
2022-12-22T11:23:03.944Z,12.40
2022-12-22T11:25:42.820Z,11.50
2022-12-22T11:28:28.120Z,11.87
2022-12-22T11:31:14.093Z,15.40
2022-12-22T11:33:54.888Z,12.70
2022-12-22T11:36:32.390Z,12.87
2022-12-22T11:39:08.030Z,13.87
2022-12-22T11:41:53.473Z,12.43
2022-12-22T11:44:46.515Z,14.17
2022-12-22T11:47:27.241Z,15.33
2022-12-22T11:50:59.266Z,16.47
2022-12-22T11:53:08.957Z,12.10
2022-12-22T11:55:41.132Z,13.40
2022-12-22T11:58:30.513Z,13.40
2022-12-22T12:01:17.565Z,12.40
2022-12-22T12:04:15.181Z,13.50
2022-12-22T12:07:04.718Z,14.90
2022-12-22T12:09:43.078Z,11.30
2022-12-22T12:12:18.966Z,10.60
2022-12-22T12:14:57.524Z,11.20
2022-12-22T12:17:38.549Z,11.40
2022-12-22T12:20:24.801Z,10.23
2022-12-22T12:23:03.065Z,9.47
2022-12-22T12:25:39.798Z,9.60
2022-12-22T12:28:18.556Z,10.10
2022-12-22T12:30:53.966Z,10.43
2022-12-22T12:33:29.754Z,8.73
2022-12-22T12:36:04.095Z,9.23
2022-12-22T12:39:07.617Z,8.70
2022-12-22T12:41:38.215Z,7.93
2022-12-22T12:44:07.205Z,8.80
2022-12-22T12:47:08.896Z,10.80
2022-12-22T12:50:03.531Z,10.03
2022-12-22T12:53:15.459Z,9.90
2022-12-22T12:56:00.929Z,8.27
2022-12-22T12:58:53.144Z,8.73
2022-12-22T13:01:59.040Z,8.17
2022-12-22T13:05:12.375Z,8.17
2022-12-22T13:08:30.236Z,7.43
2022-12-22T13:12:10.771Z,8.13
2022-12-22T13:14:53.468Z,10.63
2022-12-22T13:17:35.118Z,9.07
2022-12-22T13:20:04.114Z,8.23
2022-12-22T13:22:34.248Z,8.40
2022-12-22T13:25:03.763Z,8.47
2022-12-22T13:27:32.151Z,8.57
2022-12-22T13:30:00.789Z,8.50
2022-12-22T13:32:33.806Z,7.93
2022-12-22T13:38:02.346Z,7.50
2022-12-22T13:40:32.057Z,7.10
2022-12-22T13:43:04.702Z,7.80
2022-12-22T13:45:37.896Z,6.80
2022-12-22T13:48:11.223Z,7.40
2022-12-22T13:50:45.836Z,7.60
2022-12-22T13:53:58.061Z,7.43
2022-12-22T13:56:17.187Z,7.47
2022-12-22T13:58:51.480Z,7.43
2022-12-22T14:01:21.067Z,9.07
2022-12-22T14:04:03.248Z,8.90
2022-12-22T14:06:36.132Z,16.37
2022-12-22T14:09:20.742Z,10.83
2022-12-22T14:11:53.331Z,10.40
2022-12-22T14:14:28.666Z,9.70
2022-12-22T14:17:01.077Z,9.50
2022-12-22T14:19:35.517Z,9.40
2022-12-22T14:22:12.438Z,9.00
2022-12-22T14:24:47.446Z,11.63
2022-12-22T14:27:25.386Z,8.47
2022-12-22T14:29:53.826Z,8.63
2022-12-22T14:32:41.306Z,36.13
2022-12-22T14:35:27.983Z,7.40
2022-12-22T14:38:13.957Z,7.17
2022-12-22T14:40:48.332Z,6.40
2022-12-22T14:43:29.542Z,5.80
2022-12-22T14:46:19.749Z,6.27
2022-12-22T14:48:50.304Z,6.40
2022-12-22T14:51:20.531Z,20.80
2022-12-22T14:53:55.008Z,24.60
2022-12-22T14:56:26.747Z,19.00
2022-12-22T14:59:11.738Z,8.33
2022-12-22T15:01:40.778Z,7.43
2022-12-22T15:04:18.341Z,6.73
2022-12-22T15:06:50.040Z,7.10
2022-12-22T15:12:20.554Z,7.90
2022-12-22T15:14:50.309Z,7.60
2022-12-22T15:17:26.214Z,7.43
2022-12-22T15:19:59.895Z,8.90
2022-12-22T15:31:01.089Z,8.93
2022-12-22T15:33:30.967Z,9.33
2022-12-22T15:35:59.700Z,11.60
2022-12-22T15:38:31.062Z,11.23
2022-12-22T15:44:02.220Z,13.40
2022-12-22T15:46:41.820Z,11.90
2022-12-22T15:49:15.421Z,12.40
2022-12-22T15:51:45.268Z,11.70
2022-12-22T15:54:20.281Z,12.27
2022-12-22T15:56:51.586Z,11.60
2022-12-22T15:59:23.696Z,11.80
2022-12-22T16:02:00.524Z,11.93
2022-12-22T16:04:30.184Z,12.47
2022-12-22T16:07:00.065Z,11.63
2022-12-22T16:09:38.203Z,12.73
2022-12-22T16:12:13.170Z,11.63
2022-12-22T16:14:49.745Z,10.73
2022-12-22T16:17:21.672Z,11.57
2022-12-22T16:19:50.420Z,11.00
2022-12-22T16:22:23.718Z,11.00
2022-12-22T16:24:53.631Z,11.03
2022-12-22T16:27:23.593Z,11.60
2022-12-22T16:29:58.723Z,10.07
2022-12-22T16:32:32.740Z,11.53
2022-12-22T16:35:15.003Z,9.93
2022-12-22T16:37:44.049Z,8.90
2022-12-22T16:40:13.896Z,9.97
2022-12-22T16:45:36.508Z,10.13
2022-12-22T16:48:15.953Z,9.43
2022-12-22T16:50:46.803Z,9.60
2022-12-22T16:53:15.815Z,8.50
2022-12-22T16:55:44.688Z,10.80
2022-12-22T16:58:17.447Z,9.83
2022-12-22T17:00:47.990Z,11.07
2022-12-22T17:03:23.473Z,9.97
2022-12-22T17:05:54.845Z,11.17
2022-12-22T17:08:26.440Z,11.70
2022-12-22T17:10:57.862Z,12.17
2022-12-22T17:13:28.156Z,9.60
2022-12-22T17:15:56.956Z,10.73
2022-12-22T17:18:27.587Z,9.67
2022-12-22T17:20:58.102Z,9.37
2022-12-22T17:23:35.003Z,9.90
2022-12-22T17:26:07.673Z,11.60
2022-12-22T17:28:37.373Z,11.03
2022-12-22T17:31:07.396Z,11.27
2022-12-22T17:33:38.358Z,9.67
2022-12-22T17:36:10.553Z,10.67
2022-12-22T17:38:44.111Z,10.30
2022-12-22T17:41:15.941Z,9.30
2022-12-22T17:43:45.385Z,10.10
2022-12-22T17:46:16.097Z,10.60
2022-12-22T17:48:47.273Z,11.47
2022-12-22T17:51:20.503Z,9.80
2022-12-22T17:53:49.318Z,9.37
2022-12-22T17:56:21.892Z,9.03
2022-12-22T17:58:51.258Z,9.07
2022-12-22T18:01:25.992Z,8.57
2022-12-22T18:03:56.916Z,9.67
2022-12-22T18:06:30.733Z,11.30
2022-12-22T18:08:59.705Z,9.93
2022-12-22T18:11:28.962Z,9.13
2022-12-22T18:14:00.196Z,9.83
2022-12-22T18:16:29.562Z,10.27
2022-12-22T18:19:00.004Z,11.90
2022-12-22T18:21:30.114Z,12.37
2022-12-22T18:23:58.869Z,12.77
2022-12-22T18:26:31.435Z,13.37
2022-12-22T18:29:02.019Z,12.27
2022-12-22T18:31:30.541Z,12.70
2022-12-22T18:34:00.665Z,11.97
2022-12-22T18:36:32.593Z,10.60
2022-12-22T18:39:02.934Z,11.00
2022-12-22T18:41:35.394Z,11.93
2022-12-22T18:44:03.847Z,13.10
2022-12-22T18:46:32.449Z,13.60
2022-12-22T18:49:05.888Z,15.07
2022-12-22T18:51:34.758Z,14.97
2022-12-22T18:54:03.338Z,14.80
2022-12-22T18:56:31.867Z,14.23
2022-12-22T18:59:01.290Z,14.10
2022-12-22T19:01:30.969Z,15.50
2022-12-22T19:04:00.186Z,13.00
2022-12-22T19:06:30.259Z,14.03
2022-12-22T19:08:58.705Z,15.70
2022-12-22T19:11:29.083Z,13.23
2022-12-22T19:13:57.917Z,14.63
2022-12-22T19:16:28.101Z,15.20
2022-12-22T19:18:59.876Z,15.83
2022-12-22T19:21:29.774Z,14.50
2022-12-22T19:23:58.345Z,14.87
2022-12-22T19:26:28.347Z,14.53
2022-12-22T19:29:01.250Z,13.00
2022-12-22T19:31:32.791Z,14.00
2022-12-22T19:34:06.989Z,14.03
2022-12-22T19:36:37.231Z,15.07
2022-12-22T19:39:06.568Z,13.90
2022-12-22T19:41:43.197Z,15.37
2022-12-22T19:44:20.109Z,14.50
2022-12-22T19:46:48.819Z,15.50
2022-12-22T19:49:19.280Z,16.10
2022-12-22T19:51:49.381Z,15.50
2022-12-22T19:54:19.701Z,15.83
2022-12-22T19:56:52.340Z,15.60
2022-12-22T19:59:32.420Z,17.77
2022-12-22T20:02:23.615Z,17.37
2022-12-22T20:04:53.566Z,15.50
2022-12-22T20:07:25.447Z,15.30
2022-12-22T20:09:54.467Z,19.17
2022-12-22T20:12:27.647Z,20.00
2022-12-22T20:14:56.393Z,19.83
2022-12-22T20:17:24.901Z,19.27
2022-12-22T20:19:53.569Z,18.77
2022-12-22T20:22:24.707Z,22.20
2022-12-22T20:24:54.631Z,20.57
2022-12-22T20:27:26.080Z,21.73
2022-12-22T20:29:54.606Z,19.93
2022-12-22T20:32:27.841Z,21.83
2022-12-22T20:34:57.185Z,21.07
2022-12-22T20:37:30.369Z,19.83
2022-12-22T20:39:59.114Z,20.13
2022-12-22T20:42:27.808Z,19.37
2022-12-22T20:45:03.320Z,19.30
2022-12-22T20:47:33.776Z,19.10
2022-12-22T20:50:02.810Z,40.47
2022-12-22T20:52:32.917Z,15.53
2022-12-22T20:55:01.456Z,16.50
2022-12-22T20:57:30.130Z,16.67
2022-12-22T20:59:58.500Z,15.27
2022-12-22T21:02:29.229Z,16.20
2022-12-22T21:04:58.135Z,17.00
2022-12-22T21:07:27.136Z,14.27
2022-12-22T21:09:57.092Z,12.90
2022-12-22T21:12:26.666Z,11.43
2022-12-22T21:14:56.119Z,12.57
2022-12-22T21:17:24.800Z,12.10
2022-12-22T21:19:53.371Z,22.37
2022-12-22T21:22:22.257Z,11.93
2022-12-22T21:24:51.009Z,10.97
2022-12-22T21:27:22.025Z,11.50
2022-12-22T21:29:50.639Z,11.40
2022-12-22T21:32:19.160Z,11.83
2022-12-22T21:34:47.648Z,14.10
2022-12-22T21:37:19.045Z,12.17
2022-12-22T21:39:47.699Z,11.87
2022-12-22T21:42:17.671Z,12.83
2022-12-22T21:44:50.603Z,12.93
2022-12-22T21:47:21.673Z,13.70
2022-12-22T21:49:50.638Z,12.70
2022-12-22T21:52:20.039Z,11.33
2022-12-22T21:54:48.743Z,12.60
2022-12-22T21:57:17.801Z,12.90
2022-12-22T21:59:47.994Z,12.00
2022-12-22T22:02:19.123Z,13.90
2022-12-22T22:04:54.058Z,11.67
2022-12-22T22:07:23.899Z,15.23
2022-12-22T22:09:52.586Z,13.40
2022-12-22T22:12:37.554Z,15.43
2022-12-22T22:15:11.295Z,14.00
2022-12-22T22:17:40.082Z,13.10
2022-12-22T22:20:10.781Z,15.13
2022-12-22T22:22:39.426Z,15.20
2022-12-22T22:25:09.175Z,13.40
2022-12-22T22:27:39.691Z,15.27
2022-12-22T22:30:16.344Z,14.73
2022-12-22T22:32:46.344Z,13.50
2022-12-22T22:35:15.352Z,15.93
2022-12-22T22:37:45.866Z,19.20
2022-12-22T22:40:16.493Z,13.20
2022-12-22T22:42:44.988Z,16.80
2022-12-22T22:45:23.198Z,13.80
2022-12-22T22:47:53.200Z,13.10
2022-12-22T22:50:22.971Z,13.07
2022-12-22T22:52:52.307Z,12.90
2022-12-22T22:55:20.812Z,13.37
2022-12-22T22:57:49.978Z,13.57
2022-12-22T23:00:21.965Z,12.47
2022-12-22T23:02:50.542Z,14.73
2022-12-22T23:05:22.976Z,13.40
2022-12-22T23:07:51.788Z,12.97
2022-12-22T23:10:20.477Z,12.97
2022-12-22T23:12:48.933Z,12.20
2022-12-22T23:15:19.533Z,16.07
2022-12-22T23:17:48.014Z,13.63
2022-12-22T23:20:16.633Z,12.80
2022-12-22T23:22:45.314Z,14.17
2022-12-22T23:25:14.671Z,12.60
2022-12-22T23:27:43.414Z,12.60
2022-12-22T23:30:12.755Z,12.47
2022-12-22T23:32:42.750Z,12.90
2022-12-22T23:35:11.397Z,12.07
2022-12-22T23:37:39.781Z,11.87
2022-12-22T23:40:41.907Z,12.67
2022-12-22T23:43:00.039Z,13.43
2022-12-22T23:45:28.859Z,10.60
2022-12-22T23:47:59.377Z,11.20
2022-12-22T23:50:28.663Z,12.60
2022-12-22T23:52:57.059Z,12.63
2022-12-22T23:55:25.761Z,12.30
2022-12-22T23:57:56.568Z,11.37
